Time;durP1;ratioP1;P1;durP2;ratioP2;P2;SDS_P1;SDS_P2;PMS_P1;PMS_P2;Temp;Humidity;BMP_temperature;BMP_pressure;BME280_temperature;BME280_humidity;BME280_pressure;Samples;Min_cycle;Max_cycle;Signal;HPM_P1;HPM_P2
2023/05/13 00:00:46;;;;;;;;;;;;;;;-144.99;78.95;52260.56;5090272;28;20507;-71
2023/05/13 00:03:12;;;;;;;;;;;;;;;-144.99;79.15;52252.44;5088864;28;20015;-71
2023/05/13 00:05:39;;;;;;;;;;;;;;;-144.99;79.31;52258.53;5092589;28;19958;-71
2023/05/13 00:08:06;;;;;;;;;;;;;;;-144.99;79.39;52256.50;5088753;28;20006;-71
2023/05/13 00:10:32;;;;;;;;;;;;;;;-144.99;79.55;52232.03;5099437;28;19981;-72
2023/05/13 00:12:59;;;;;;;;;;;;;;;-144.99;79.53;52268.72;5098564;28;20251;-72
2023/05/13 00:15:28;;;;;;;;;;;;;;;-144.99;79.77;52232.03;5094655;27;19924;-72
2023/05/13 00:17:55;;;;;;;;;;;;;;;-144.99;80.11;52248.34;5100724;28;20306;-72
2023/05/13 00:20:21;;;;;;;;;;;;;;;-144.99;79.99;52276.88;5088601;28;19931;-70
2023/05/13 00:22:48;;;;;;;;;;;;;;;-144.99;80.39;52276.88;5099218;28;19932;-70
2023/05/13 00:25:15;;;;;;;;;;;;;;;-144.99;80.50;52242.22;5093871;28;20300;-70
2023/05/13 00:27:41;;;;;;;;;;;;;;;-144.99;80.54;52276.88;5096535;28;19977;-70
2023/05/13 00:30:08;;;;;;;;;;;;;;;-144.99;80.31;52289.13;5087742;28;19954;-71
2023/05/13 00:32:36;;;;;;;;;;;;;;;-144.99;80.57;52260.56;5095901;28;19949;-75
2023/05/13 00:35:02;;;;;;;;;;;;;;;-144.99;80.77;52272.81;5088045;28;20344;-75
2023/05/13 00:37:29;;;;;;;;;;;;;;;-144.99;81.00;52254.47;5087722;28;20023;-74
2023/05/13 00:39:55;;;;;;;;;;;;;;;-144.99;80.98;52285.03;5090060;28;19932;-72
2023/05/13 00:42:22;;;;;;;;;;;;;;;-144.99;81.29;52232.03;5087730;28;19924;-73
2023/05/13 00:44:49;;;;;;;;;;;;;;;-144.99;81.15;52276.88;5089406;28;19931;-73
2023/05/13 00:47:16;;;;;;;;;;;;;;;-144.99;81.19;52260.56;5089580;28;19924;-74
2023/05/13 00:49:44;;;;;;;;;;;;;;;-144.99;81.30;52276.88;5088841;28;20300;-77
2023/05/13 00:52:11;;;;;;;;;;;;;;;-144.99;81.36;52293.19;5100861;28;19928;-77
2023/05/13 00:54:38;;;;;;;;;;;;;;;-144.99;81.29;52262.63;5089532;28;19924;-77
2023/05/13 00:57:05;;;;;;;;;;;;;;;-144.99;81.24;52246.31;5096652;28;20004;-74
2023/05/13 00:59:31;;;;;;;;;;;;;;;-144.99;81.19;52272.81;5098371;28;20299;-74
2023/05/13 01:02:02;;;;;;;;;;;;;;;-144.99;81.27;52232.03;5086971;28;19932;-75
2023/05/13 01:04:32;;;;;;;;;;;;;;;-144.99;81.20;52244.28;5090956;28;20001;-75
2023/05/13 01:07:05;;;;;;;;;;;;;;;-144.99;81.05;52250.38;5087586;28;20375;-66
2023/05/13 01:09:35;;;;;;;;;;;;;;;-144.99;81.19;52240.19;5091959;28;19924;-66
2023/05/13 01:12:07;;;;;;;;;;;;;;;-144.99;81.16;52244.28;5087617;28;20331;-68
2023/05/13 01:14:36;;;;;;;;;;;;;;;-144.99;81.05;52264.66;5090941;28;20014;-70
2023/05/13 01:17:07;;;;;;;;;;;;;;;-144.99;81.17;52285.03;5095267;28;19927;-69
2023/05/13 01:19:38;;;;;;;;;;;;;;;-144.99;81.26;52272.81;5092202;28;20042;-69
2023/05/13 01:22:06;;;;;;;;;;;;;;;-144.99;81.19;52266.69;5087181;28;20395;-69
2023/05/13 01:24:33;;;;;;;;;;;;;;;-144.99;81.20;52289.13;5087780;28;20020;-69
2023/05/13 01:27:00;;;;;;;;;;;;;;;-144.99;81.46;52268.72;5087580;28;20063;-68
2023/05/13 01:29:27;;;;;;;;;;;;;;;-144.99;81.24;52254.47;5094124;28;19924;-72
2023/05/13 01:31:53;;;;;;;;;;;;;;;-144.99;81.34;52305.41;5092465;28;19989;-74
2023/05/13 01:34:21;;;;;;;;;;;;;;;-144.99;81.49;52268.72;5095885;28;20386;-70
2023/05/13 01:36:47;;;;;;;;;;;;;;;-144.99;81.31;52250.38;5096836;28;20387;-70
2023/05/13 01:39:15;;;;;;;;;;;;;;;-144.99;81.63;52248.34;5096786;28;19928;-71
2023/05/13 01:41:43;;;;;;;;;;;;;;;-144.99;81.72;52248.34;5092522;28;19971;-70
2023/05/13 01:44:10;;;;;;;;;;;;;;;-144.99;81.52;52244.28;5097565;28;20557;-70
2023/05/13 01:46:37;;;;;;;;;;;;;;;-144.99;81.59;52258.53;5089969;28;20001;-69
2023/05/13 01:49:03;;;;;;;;;;;;;;;-144.99;81.79;52289.13;5091984;28;20016;-69
2023/05/13 01:51:32;;;;;;;;;;;;;;;-144.99;81.68;52285.03;5090111;28;20376;-68
2023/05/13 01:53:58;;;;;;;;;;;;;;;-144.99;81.72;52256.50;5094270;28;20396;-70
2023/05/13 01:56:26;;;;;;;;;;;;;;;-144.99;81.81;52260.56;5101249;28;20370;-70
2023/05/13 01:58:53;;;;;;;;;;;;;;;-144.99;81.72;52252.44;5097631;28;20477;-69
2023/05/13 02:01:19;;;;;;;;;;;;;;;-144.99;81.92;52254.47;5100485;28;19986;-69
2023/05/13 02:03:46;;;;;;;;;;;;;;;-144.99;82.11;52232.03;5091511;28;19975;-68
2023/05/13 02:06:12;;;;;;;;;;;;;;;-144.99;82.25;52285.03;5095464;28;19969;-68
2023/05/13 02:08:38;;;;;;;;;;;;;;;-144.99;82.26;52232.03;5090208;28;19974;-68
2023/05/13 02:11:05;;;;;;;;;;;;;;;-144.99;82.24;52256.50;5102042;28;19924;-70
2023/05/13 02:13:33;;;;;;;;;;;;;;;-144.99;82.37;52260.56;5099300;27;19981;-69
2023/05/13 02:15:59;;;;;;;;;;;;;;;-144.99;82.53;52256.50;5090080;27;19989;-69
2023/05/13 02:18:26;;;;;;;;;;;;;;;-144.99;82.54;52256.50;5089851;28;19932;-69
2023/05/13 02:20:53;;;;;;;;;;;;;;;-144.99;82.88;52244.28;5096689;28;19963;-69
2023/05/13 02:23:20;;;;;;;;;;;;;;;-144.99;82.90;52252.44;5089806;28;19927;-68
2023/05/13 02:25:46;;;;;;;;;;;;;;;-144.99;82.98;52256.50;5089638;28;19943;-68
2023/05/13 02:28:13;;;;;;;;;;;;;;;-144.99;83.05;52264.66;5090578;28;20332;-67
2023/05/13 02:30:41;;;;;;;;;;;;;;;-144.99;83.18;52248.34;5097253;28;19928;-67
2023/05/13 02:33:07;;;;;;;;;;;;;;;-144.99;83.41;52250.38;5089689;28;19993;-67
2023/05/13 02:35:34;;;;;;;;;;;;;;;-144.99;83.58;52276.88;5089631;28;20153;-68
2023/05/13 02:38:02;;;;;;;;;;;;;;;-144.99;83.78;52268.72;5089094;28;19924;-68
2023/05/13 02:40:29;;;;;;;;;;;;;;;-144.99;83.96;52276.88;5091433;28;19928;-68
2023/05/13 02:42:55;;;;;;;;;;;;;;;-144.99;84.21;52293.19;5089075;28;19967;-68
2023/05/13 02:45:22;;;;;;;;;;;;;;;-144.99;84.11;52238.16;5097432;28;19968;-68
2023/05/13 02:47:50;;;;;;;;;;;;;;;-144.99;84.59;52280.97;5098936;28;19951;-75
2023/05/13 02:50:16;;;;;;;;;;;;;;;-144.99;84.63;52268.72;5097840;28;20367;-75
2023/05/13 02:52:43;;;;;;;;;;;;;;;-144.99;84.88;52301.34;5093823;28;19928;-74
2023/05/13 02:55:09;;;;;;;;;;;;;;;-144.99;85.21;52313.56;5096602;28;20034;-73
2023/05/13 02:57:36;;;;;;;;;;;;;;;-144.99;85.39;52264.66;5092299;28;19997;-78
2023/05/13 03:00:03;;;;;;;;;;;;;;;-144.99;85.40;52248.34;5103428;28;19931;-77
2023/05/13 03:02:30;;;;;;;;;;;;;;;-144.99;85.53;52256.50;5089954;28;19966;-80
2023/05/13 03:04:57;;;;;;;;;;;;;;;-144.99;85.67;52289.13;5099053;28;19932;-78
2023/05/13 03:07:24;;;;;;;;;;;;;;;-144.99;85.96;52295.22;5104829;28;19928;-78
2023/05/13 03:09:51;;;;;;;;;;;;;;;-144.99;85.88;52252.44;5095609;28;19924;-77
2023/05/13 03:12:17;;;;;;;;;;;;;;;-144.99;86.16;52260.56;5103250;28;20889;-77
2023/05/13 03:14:44;;;;;;;;;;;;;;;-144.99;86.27;52240.19;5096915;27;19928;-68
2023/05/13 03:17:10;;;;;;;;;;;;;;;-144.99;86.49;52242.22;5095873;28;19977;-77
2023/05/13 03:19:38;;;;;;;;;;;;;;;-144.99;86.69;52289.13;5103735;28;19935;-77
2023/05/13 03:22:06;;;;;;;;;;;;;;;-144.99;86.81;52287.06;5092905;28;19928;-77
2023/05/13 03:24:32;;;;;;;;;;;;;;;-144.99;86.85;52252.44;5104757;28;19928;-77
2023/05/13 03:26:59;;;;;;;;;;;;;;;-144.99;86.95;52280.97;5095246;28;20149;-76
2023/05/13 03:29:25;;;;;;;;;;;;;;;-144.99;87.04;52285.03;5089061;28;20003;-76
2023/05/13 03:31:52;;;;;;;;;;;;;;;-144.99;87.02;52268.72;5094373;28;20137;-77
2023/05/13 03:34:19;;;;;;;;;;;;;;;-144.99;86.93;52285.03;5094978;28;19997;-72
2023/05/13 03:36:45;;;;;;;;;;;;;;;-144.99;86.96;52256.50;5099399;28;19931;-71
2023/05/13 03:39:13;;;;;;;;;;;;;;;-144.99;87.18;52236.13;5093402;28;20181;-70
2023/05/13 03:41:40;;;;;;;;;;;;;;;-144.99;87.25;52285.03;5098129;28;19928;-67
2023/05/13 03:44:06;;;;;;;;;;;;;;;-144.99;87.26;52252.44;5095919;28;19977;-67
2023/05/13 03:46:33;;;;;;;;;;;;;;;-144.99;87.28;52285.03;5092363;28;20992;-67
2023/05/13 03:48:59;;;;;;;;;;;;;;;-144.99;87.34;52285.03;5089910;28;20405;-70
2023/05/13 03:51:26;;;;;;;;;;;;;;;-144.99;87.41;52280.97;5092056;28;19928;-70
2023/05/13 03:53:53;;;;;;;;;;;;;;;-144.99;87.59;52236.13;5099170;28;20258;-70
2023/05/13 03:56:21;;;;;;;;;;;;;;;-144.99;87.47;52248.34;5090213;28;19928;-70
2023/05/13 03:58:47;;;;;;;;;;;;;;;-144.99;87.77;52256.50;5094454;28;19931;-68
2023/05/13 04:01:14;;;;;;;;;;;;;;;-144.99;87.50;52266.69;5087691;28;20025;-68
2023/05/13 04:03:43;;;;;;;;;;;;;;;-144.99;87.44;52240.19;5088282;28;20039;-68
2023/05/13 04:06:09;;;;;;;;;;;;;;;-144.99;87.60;52250.38;5090196;28;19968;-67
2023/05/13 04:08:36;;;;;;;;;;;;;;;-144.99;87.79;52252.44;5096477;28;20023;-70
2023/05/13 04:11:02;;;;;;;;;;;;;;;-144.99;87.94;52260.56;5097360;28;20332;-70
2023/05/13 04:13:30;;;;;;;;;;;;;;;-144.99;88.01;52256.50;5089696;28;19945;-70
2023/05/13 04:15:56;;;;;;;;;;;;;;;-144.99;88.04;52244.28;5088718;27;19993;-71
2023/05/13 04:18:23;;;;;;;;;;;;;;;-144.99;88.02;52264.66;5093015;28;19936;-70
2023/05/13 04:20:49;;;;;;;;;;;;;;;-144.99;88.05;52280.97;5087557;28;20008;-71
2023/05/13 04:23:16;;;;;;;;;;;;;;;-144.99;87.90;52280.97;5087897;28;20024;-70
2023/05/13 04:25:42;;;;;;;;;;;;;;;-144.99;88.02;52258.53;5094248;28;20003;-71
2023/05/13 04:28:09;;;;;;;;;;;;;;;-144.99;88.00;52248.34;5094627;28;20059;-71
2023/05/13 04:30:37;;;;;;;;;;;;;;;-144.99;88.09;52264.66;5092440;28;20057;-71
2023/05/13 04:33:04;;;;;;;;;;;;;;;-144.99;88.25;52254.47;5087747;28;19928;-70
2023/05/13 04:35:30;;;;;;;;;;;;;;;-144.99;88.40;52272.81;5087657;28;19924;-69
2023/05/13 04:37:57;;;;;;;;;;;;;;;-144.99;88.22;52264.66;5096237;28;19925;-70
2023/05/13 04:40:23;;;;;;;;;;;;;;;-144.99;88.11;52250.38;5100679;28;20113;-70
2023/05/13 04:42:53;;;;;;;;;;;;;;;-144.99;88.02;52264.66;5099393;28;19939;-70
2023/05/13 04:45:19;;;;;;;;;;;;;;;-144.99;87.98;52248.34;5089235;28;19997;-71
2023/05/13 04:47:47;;;;;;;;;;;;;;;-144.99;87.81;52280.97;5086998;28;19990;-70
2023/05/13 04:50:14;;;;;;;;;;;;;;;-144.99;87.67;52234.09;5088583;28;19928;-70
2023/05/13 04:52:41;;;;;;;;;;;;;;;-144.99;87.55;52244.28;5088257;28;20407;-69
2023/05/13 04:55:08;;;;;;;;;;;;;;;-144.99;87.33;52248.34;5095069;28;20330;-70
2023/05/13 04:57:35;;;;;;;;;;;;;;;-144.99;87.22;52276.88;5091821;28;19981;-70
2023/05/13 05:00:01;;;;;;;;;;;;;;;-144.99;87.10;52227.97;5093652;28;19994;-70
2023/05/13 05:02:28;;;;;;;;;;;;;;;-144.99;86.92;52236.13;5087157;28;19924;-69
2023/05/13 05:04:56;;;;;;;;;;;;;;;-144.99;86.77;52223.88;5087663;28;20023;-69
2023/05/13 05:07:23;;;;;;;;;;;;;;;-144.99;86.49;52260.56;5088574;28;19924;-69
2023/05/13 05:09:49;;;;;;;;;;;;;;;-144.99;86.32;52227.97;5091579;28;19982;-69
2023/05/13 05:12:16;;;;;;;;;;;;;;;-144.99;86.03;52221.84;5096590;28;19959;-69
2023/05/13 05:14:43;;;;;;;;;;;;;;;-144.99;85.75;52254.47;5096138;27;19998;-69
2023/05/13 05:17:09;;;;;;;;;;;;;;;-144.99;85.70;52240.19;5097919;28;20352;-70
2023/05/13 05:19:36;;;;;;;;;;;;;;;-144.99;85.71;52227.97;5101379;28;20351;-74
2023/05/13 05:22:04;;;;;;;;;;;;;;;-144.99;85.43;52236.13;5091001;28;19924;-74
2023/05/13 05:24:30;;;;;;;;;;;;;;;-144.99;85.12;52227.97;5091275;28;20346;-73
2023/05/13 05:26:57;;;;;;;;;;;;;;;-144.99;84.98;52211.66;5091561;28;20024;-74
2023/05/13 05:29:23;;;;;;;;;;;;;;;-144.99;84.90;52215.75;5099264;28;19984;-74
2023/05/13 05:31:50;;;;;;;;;;;;;;;-144.99;84.86;52211.66;5100395;28;19924;-74
2023/05/13 05:34:16;;;;;;;;;;;;;;;-144.99;84.61;52219.81;5092681;28;19981;-71
2023/05/13 05:36:43;;;;;;;;;;;;;;;-144.99;84.43;52223.88;5091458;28;20453;-72
2023/05/13 05:39:11;;;;;;;;;;;;;;;-144.99;84.13;52215.75;5094398;28;20030;-72
2023/05/13 05:41:37;;;;;;;;;;;;;;;-144.99;83.78;52236.13;5096717;28;20415;-73
2023/05/13 05:44:04;;;;;;;;;;;;;;;-144.99;83.64;52215.75;5094967;28;19952;-73
2023/05/13 05:46:30;;;;;;;;;;;;;;;-144.99;83.31;52207.59;5090488;28;19978;-73
2023/05/13 05:48:57;;;;;;;;;;;;;;;-144.99;82.95;52199.44;5096240;28;20050;-73
2023/05/13 05:51:23;;;;;;;;;;;;;;;-144.99;82.05;52227.97;5093799;28;19960;-70
2023/05/13 05:53:50;;;;;;;;;;;;;;;-144.99;82.02;52195.34;5090479;28;20402;-69
2023/05/13 05:56:18;;;;;;;;;;;;;;;-144.99;81.90;52213.69;5093821;28;19989;-69
2023/05/13 05:58:45;;;;;;;;;;;;;;;-144.99;81.59;52223.88;5096624;28;20293;-70
2023/05/13 06:01:11;;;;;;;;;;;;;;;-144.99;81.46;52211.66;5089943;28;19977;-71
2023/05/13 06:03:38;;;;;;;;;;;;;;;-144.99;81.10;52187.19;5098646;28;20385;-71
2023/05/13 06:06:05;;;;;;;;;;;;;;;-144.99;80.83;52191.28;5092884;28;19967;-70
2023/05/13 06:08:31;;;;;;;;;;;;;;;-144.99;80.51;52193.31;5091094;28;19954;-70
2023/05/13 06:10:58;;;;;;;;;;;;;;;-144.99;80.25;52203.50;5091700;28;20058;-70
2023/05/13 06:13:26;;;;;;;;;;;;;;;-144.99;79.67;52199.44;5098353;27;20040;-67
2023/05/13 06:15:52;;;;;;;;;;;;;;;-144.99;79.38;52207.59;5096086;27;19981;-68
2023/05/13 06:18:19;;;;;;;;;;;;;;;-144.99;79.03;52195.34;5090468;28;20001;-71
2023/05/13 06:20:46;;;;;;;;;;;;;;;-144.99;78.73;52209.63;5096584;28;19967;-73
2023/05/13 06:23:13;;;;;;;;;;;;;;;-144.99;78.36;52166.81;5095027;28;20310;-71
2023/05/13 06:25:40;;;;;;;;;;;;;;;-144.99;78.12;52219.81;5089925;28;19935;-70
2023/05/13 06:28:07;;;;;;;;;;;;;;;-144.99;78.00;52174.97;5091157;28;19974;-70
2023/05/13 06:30:35;;;;;;;;;;;;;;;-144.99;77.56;52207.59;5090093;28;19931;-70
2023/05/13 06:33:02;;;;;;;;;;;;;;;-144.99;77.07;52166.81;5089772;28;19924;-74
2023/05/13 06:35:28;;;;;;;;;;;;;;;-144.99;77.05;52187.19;5104996;28;19924;-74
2023/05/13 06:37:55;;;;;;;;;;;;;;;-144.99;76.33;52203.50;5102680;28;19928;-73
2023/05/13 06:40:21;;;;;;;;;;;;;;;-144.99;76.13;52170.91;5101083;28;19994;-73
2023/05/13 06:42:48;;;;;;;;;;;;;;;-144.99;76.12;52195.34;5107217;28;20218;-73
2023/05/13 06:45:15;;;;;;;;;;;;;;;-144.99;75.95;52158.66;5092767;28;20007;-74
2023/05/13 06:47:43;;;;;;;;;;;;;;;-144.99;74.84;52179.06;5088873;28;20393;-73
2023/05/13 06:50:09;;;;;;;;;;;;;;;-144.99;74.36;52138.28;5097652;28;19928;-73
2023/05/13 06:52:36;;;;;;;;;;;;;;;-144.99;74.51;52179.06;5094140;28;20396;-72
2023/05/13 06:55:03;;;;;;;;;;;;;;;-144.99;73.76;52154.59;5090947;28;19924;-72
2023/05/13 06:57:29;;;;;;;;;;;;;;;-144.99;73.68;52162.75;5096694;28;19963;-72
2023/05/13 06:59:56;;;;;;;;;;;;;;;-144.99;73.12;52154.59;5096485;28;19962;-68
2023/05/13 07:02:22;;;;;;;;;;;;;;;-144.99;72.78;52154.59;5094522;28;20250;-71
2023/05/13 07:04:50;;;;;;;;;;;;;;;-144.99;72.37;52138.28;5092326;28;19990;-72
2023/05/13 07:07:17;;;;;;;;;;;;;;;-144.99;71.99;52156.63;5089478;28;20001;-73
2023/05/13 07:09:43;;;;;;;;;;;;;;;-144.99;72.11;52138.28;5089004;28;19985;-72
2023/05/13 07:12:10;;;;;;;;;;;;;;;-144.99;71.97;52134.22;5089173;28;19928;-73
2023/05/13 07:14:36;;;;;;;;;;;;;;;-144.99;71.39;52111.78;5096789;27;20004;-73
2023/05/13 07:17:03;;;;;;;;;;;;;;;-144.99;71.36;52152.56;5109633;28;19939;-73
2023/05/13 07:19:30;;;;;;;;;;;;;;;-144.99;71.30;52146.44;5090723;28;19924;-73
2023/05/13 07:21:57;;;;;;;;;;;;;;;-144.99;70.85;52124.03;5097625;28;20068;-73
2023/05/13 07:24:24;;;;;;;;;;;;;;;-144.99;70.00;52140.31;5094152;28;20022;-72
2023/05/13 07:26:50;;;;;;;;;;;;;;;-144.99;70.62;52121.97;5105691;28;19924;-73
2023/05/13 07:29:17;;;;;;;;;;;;;;;-144.99;70.12;52121.97;5090420;28;20480;-73
2023/05/13 07:31:44;;;;;;;;;;;;;;;-144.99;69.46;52128.09;5087834;28;19946;-62
2023/05/13 07:34:10;;;;;;;;;;;;;;;-144.99;69.66;52130.13;5094683;28;19938;-66
2023/05/13 07:36:37;;;;;;;;;;;;;;;-144.99;69.62;52126.06;5091670;28;20076;-66
2023/05/13 07:39:07;;;;;;;;;;;;;;;-144.99;69.62;52117.91;5088427;28;19928;-66
2023/05/13 07:41:33;;;;;;;;;;;;;;;-144.99;69.24;52158.66;5090312;28;19954;-66
2023/05/13 07:44:00;;;;;;;;;;;;;;;-144.99;68.63;52140.31;5100552;28;19931;-67
2023/05/13 07:46:26;;;;;;;;;;;;;;;-144.99;68.24;52142.38;5088798;28;19954;-66
2023/05/13 07:48:53;;;;;;;;;;;;;;;-144.99;68.00;52130.13;5099492;28;20457;-67
2023/05/13 07:51:20;;;;;;;;;;;;;;;-144.99;67.76;52107.72;5094418;28;20041;-67
2023/05/13 07:53:46;;;;;;;;;;;;;;;-144.99;67.63;52101.59;5097761;28;19961;-67
2023/05/13 07:56:14;;;;;;;;;;;;;;;-144.99;67.07;52119.94;5095193;28;20000;-71
2023/05/13 07:58:41;;;;;;;;;;;;;;;-144.99;66.07;52117.91;5089072;28;19927;-70
2023/05/13 08:01:07;;;;;;;;;;;;;;;-144.99;66.00;52134.22;5102479;28;19924;-71
2023/05/13 08:03:34;;;;;;;;;;;;;;;-144.99;65.72;52077.16;5095321;28;19928;-71
2023/05/13 08:06:01;;;;;;;;;;;;;;;-144.99;65.60;52079.19;5089539;28;20393;-71
2023/05/13 08:08:27;;;;;;;;;;;;;;;-144.99;65.59;52138.28;5088037;28;19965;-70
2023/05/13 08:10:54;;;;;;;;;;;;;;;-144.99;65.05;52064.91;5090191;28;19998;-70
2023/05/13 08:13:22;;;;;;;;;;;;;;;-144.99;65.36;52101.59;5102881;28;20072;-71
2023/05/13 08:15:49;;;;;;;;;;;;;;;-144.99;65.23;52073.06;5087738;28;19966;-70
2023/05/13 08:18:15;;;;;;;;;;;;;;;-144.99;65.07;52101.59;5089953;28;19936;-70
2023/05/13 08:20:42;;;;;;;;;;;;;;;-144.99;64.74;52087.34;5091795;28;20407;-70
2023/05/13 08:23:08;;;;;;;;;;;;;;;-144.99;64.52;52079.19;5092485;28;19942;-70
2023/05/13 08:25:35;;;;;;;;;;;;;;;-144.99;64.05;52124.03;5097002;28;19924;-70
2023/05/13 08:28:02;;;;;;;;;;;;;;;-144.99;63.72;52081.22;5086508;28;19967;-71
2023/05/13 08:30:29;;;;;;;;;;;;;;;-144.99;63.71;52081.22;5084975;28;20395;-70
2023/05/13 08:32:56;;;;;;;;;;;;;;;-144.99;63.80;52060.84;5085119;28;19962;-71
2023/05/13 08:35:22;;;;;;;;;;;;;;;-144.99;63.83;52079.19;5084646;28;19932;-70
2023/05/13 08:37:49;;;;;;;;;;;;;;;-144.99;63.36;52064.91;5087142;28;20064;-70
2023/05/13 08:40:16;;;;;;;;;;;;;;;-144.99;63.01;52069.00;5089790;28;19982;-70
2023/05/13 08:42:43;;;;;;;;;;;;;;;-144.99;62.73;52064.91;5091574;28;20389;-71
2023/05/13 08:45:11;;;;;;;;;;;;;;;-144.99;61.56;52060.84;5090010;28;19924;-70
2023/05/13 08:47:43;;;;;;;;;;;;;;;-144.99;61.72;52064.91;5092576;28;19959;-70
2023/05/13 08:50:10;;;;;;;;;;;;;;;-144.99;61.72;52101.59;5092622;28;19932;-70
2023/05/13 08:52:37;;;;;;;;;;;;;;;-144.99;61.62;52066.97;5093019;28;20054;-70
2023/05/13 08:55:04;;;;;;;;;;;;;;;-144.99;61.25;52056.78;5090012;28;19999;-73
2023/05/13 08:57:30;;;;;;;;;;;;;;;-144.99;60.96;52062.88;5094121;28;20491;-70
2023/05/13 08:59:57;;;;;;;;;;;;;;;-144.99;60.83;52093.44;5090769;28;20041;-70
2023/05/13 09:02:23;;;;;;;;;;;;;;;-144.99;60.71;52046.56;5089380;28;19981;-70
2023/05/13 09:04:53;;;;;;;;;;;;;;;-144.99;60.39;52038.44;5091026;28;20476;-71
2023/05/13 09:07:20;;;;;;;;;;;;;;;-144.99;60.29;52050.66;5091939;28;20146;-70
2023/05/13 09:09:46;;;;;;;;;;;;;;;-144.99;59.86;52040.47;5089482;28;19992;-70
2023/05/13 09:12:33;;;;;;;;;;;;;;;-144.99;60.00;52064.91;5088967;28;20043;-70
2023/05/13 09:14:59;;;;;;;;;;;;;;;-144.99;59.89;52022.13;5104611;27;19963;-70
2023/05/13 09:17:26;;;;;;;;;;;;;;;-144.99;59.86;52050.66;5105073;28;19993;-70
2023/05/13 09:19:54;;;;;;;;;;;;;;;-144.99;59.44;52046.56;5093716;28;20009;-71
2023/05/13 09:22:23;;;;;;;;;;;;;;;-144.99;59.27;52062.88;5088749;28;20024;-71
2023/05/13 09:24:53;;;;;;;;;;;;;;;-144.99;59.36;52040.47;5089163;28;20004;-71
2023/05/13 09:27:23;;;;;;;;;;;;;;;-144.99;58.91;52052.69;5093211;28;20385;-72
2023/05/13 09:29:58;;;;;;;;;;;;;;;-144.99;58.96;51987.47;5094416;28;20010;-71
2023/05/13 09:32:25;;;;;;;;;;;;;;;-144.99;58.95;52040.47;5090195;28;20385;-73
2023/05/13 09:34:51;;;;;;;;;;;;;;;-144.99;58.59;51983.41;5089663;28;20002;-72
2023/05/13 09:37:19;;;;;;;;;;;;;;;-144.99;58.20;52020.09;5096536;28;19965;-72
2023/05/13 09:39:46;;;;;;;;;;;;;;;-144.99;58.15;51991.56;5097317;28;19928;-73
2023/05/13 09:42:15;;;;;;;;;;;;;;;-144.99;57.56;52028.22;5091541;28;20014;-72
2023/05/13 09:44:42;;;;;;;;;;;;;;;-144.99;57.36;52005.81;5099149;28;19944;-72
2023/05/13 09:47:11;;;;;;;;;;;;;;;-144.99;57.44;52048.63;5098483;28;19974;-72
2023/05/13 09:49:37;;;;;;;;;;;;;;;-144.99;56.96;52020.09;5097797;28;19971;-72
2023/05/13 09:52:08;;;;;;;;;;;;;;;-144.99;57.12;52020.09;5094931;28;19959;-72
2023/05/13 09:54:36;;;;;;;;;;;;;;;-144.99;57.44;52052.69;5095711;28;20031;-72
2023/05/13 09:57:03;;;;;;;;;;;;;;;-144.99;57.17;51997.66;5098897;28;20073;-70
2023/05/13 09:59:31;;;;;;;;;;;;;;;-144.99;57.51;52003.78;5096635;28;20030;-72
2023/05/13 10:01:59;;;;;;;;;;;;;;;-144.99;56.70;51999.69;5096758;28;19962;-72
2023/05/13 10:04:26;;;;;;;;;;;;;;;-144.99;57.19;51999.69;5093630;28;19959;-72
2023/05/13 10:06:53;;;;;;;;;;;;;;;-144.99;57.18;51981.38;5096907;28;19958;-72
2023/05/13 10:09:21;;;;;;;;;;;;;;;-144.99;57.31;51950.78;5095690;28;19985;-72
2023/05/13 10:11:48;;;;;;;;;;;;;;;-144.99;57.11;52028.22;5094812;28;20204;-71
2023/05/13 10:14:15;;;;;;;;;;;;;;;-144.99;56.58;51967.09;5094485;27;20006;-72
2023/05/13 10:16:42;;;;;;;;;;;;;;;-144.99;56.78;51995.63;5095049;28;19928;-72
2023/05/13 10:19:10;;;;;;;;;;;;;;;-144.99;56.38;51983.41;5095599;28;19923;-73
2023/05/13 10:21:37;;;;;;;;;;;;;;;-144.99;56.73;51963.03;5102125;28;19923;-74
2023/05/13 10:24:04;;;;;;;;;;;;;;;-144.99;55.39;51995.63;5098566;28;19973;-74
2023/05/13 10:26:31;;;;;;;;;;;;;;;-144.99;55.75;51934.50;5100493;28;19932;-71
2023/05/13 10:28:59;;;;;;;;;;;;;;;-144.99;56.06;52020.09;5093115;28;19963;-72
2023/05/13 10:31:26;;;;;;;;;;;;;;;-144.99;56.27;51942.63;5090525;28;19924;-71
2023/05/13 10:33:53;;;;;;;;;;;;;;;-144.99;56.16;51983.41;5094980;28;20415;-71
2023/05/13 10:36:27;;;;;;;;;;;;;;;-144.99;56.31;51979.31;5099607;28;19995;-71
2023/05/13 10:39:02;;;;;;;;;;;;;;;-144.99;56.46;51958.94;5094121;28;20380;-72
2023/05/13 10:41:48;;;;;;;;;;;;;;;-144.99;56.63;51960.97;5094054;28;19932;-71
2023/05/13 10:44:17;;;;;;;;;;;;;;;-144.99;56.66;51954.88;5099451;28;20057;-72
2023/05/13 10:46:44;;;;;;;;;;;;;;;-144.99;56.18;51922.25;5094673;28;20376;-72
2023/05/13 10:49:14;;;;;;;;;;;;;;;-144.99;56.32;51950.78;5093345;28;20373;-72
2023/05/13 10:51:44;;;;;;;;;;;;;;;-144.99;56.54;51958.94;5097550;28;19960;-72
2023/05/13 10:54:18;;;;;;;;;;;;;;;-144.99;56.21;51948.75;5096711;28;19932;-72
2023/05/13 10:56:44;;;;;;;;;;;;;;;-144.99;56.40;51926.34;5096798;28;21858;-72
2023/05/13 10:59:11;;;;;;;;;;;;;;;-144.99;55.71;51914.09;5095871;28;19927;-72
2023/05/13 11:01:42;;;;;;;;;;;;;;;-144.99;55.71;51932.44;5096657;28;20056;-72
2023/05/13 11:04:12;;;;;;;;;;;;;;;-144.99;56.05;51920.22;5097785;28;19938;-71
2023/05/13 11:06:39;;;;;;;;;;;;;;;-144.99;54.81;51869.28;5094256;28;20027;-71
2023/05/13 11:09:08;;;;;;;;;;;;;;;-144.99;55.04;51914.09;5091549;28;20519;-71
2023/05/13 11:11:35;;;;;;;;;;;;;;;-144.99;55.41;51857.03;5095226;28;20024;-71
2023/05/13 11:14:14;;;;;;;;;;;;;;;-144.99;54.53;51867.22;5096358;27;19976;-72
2023/05/13 11:16:45;;;;;;;;;;;;;;;-144.99;54.49;51873.34;5091955;28;20410;-72
2023/05/13 11:19:18;;;;;;;;;;;;;;;-144.99;54.25;51852.97;5090034;28;20378;-71
2023/05/13 11:21:47;;;;;;;;;;;;;;;-144.99;53.92;51889.66;5095019;28;19958;-72
2023/05/13 11:24:17;;;;;;;;;;;;;;;-144.99;53.73;51861.13;5093801;28;19932;-73
2023/05/13 11:26:47;;;;;;;;;;;;;;;-144.99;53.79;51901.88;5092320;28;19928;-72
2023/05/13 11:29:14;;;;;;;;;;;;;;;-144.99;54.09;51897.81;5098725;28;19928;-73
2023/05/13 11:31:51;;;;;;;;;;;;;;;-144.99;54.32;51893.72;5094368;28;19963;-71
2023/05/13 11:34:18;;;;;;;;;;;;;;;-144.99;54.28;51963.03;5094590;28;20049;-71
2023/05/13 11:36:47;;;;;;;;;;;;;;;-144.99;54.34;51995.63;5092350;28;19928;-72
2023/05/13 11:39:15;;;;;;;;;;;;;;;-144.99;54.55;52032.31;5089987;28;19928;-71
2023/05/13 11:41:42;;;;;;;;;;;;;;;-144.99;54.93;51960.97;5095285;28;20008;-71
2023/05/13 11:44:09;;;;;;;;;;;;;;;-144.99;55.10;52007.84;5091760;28;19943;-71
2023/05/13 11:46:36;;;;;;;;;;;;;;;-144.99;55.48;51975.25;5094034;28;19981;-70
2023/05/13 11:49:03;;;;;;;;;;;;;;;-144.99;55.58;51975.25;5093489;28;20236;-70
2023/05/13 11:51:30;;;;;;;;;;;;;;;-144.99;55.43;51965.06;5094319;28;19928;-70
2023/05/13 11:54:01;;;;;;;;;;;;;;;-144.99;55.07;51973.22;5097254;28;20487;-72
2023/05/13 11:56:28;;;;;;;;;;;;;;;-144.99;54.91;51967.09;5092024;28;19959;-72
2023/05/13 11:58:55;;;;;;;;;;;;;;;-144.99;54.29;51965.06;5093452;28;20040;-71
2023/05/13 12:01:21;;;;;;;;;;;;;;;-144.99;54.08;52040.47;5090213;28;20349;-72
2023/05/13 12:03:48;;;;;;;;;;;;;;;-144.99;54.41;52044.53;5093416;28;20071;-72
2023/05/13 12:06:16;;;;;;;;;;;;;;;-144.99;55.19;52077.16;5096726;28;20509;-72
2023/05/13 12:08:45;;;;;;;;;;;;;;;-144.99;55.63;52085.31;5091174;28;19925;-71
2023/05/13 12:11:12;;;;;;;;;;;;;;;-144.99;56.11;51993.59;5093563;28;19928;-71
2023/05/13 12:13:39;;;;;;;;;;;;;;;-144.99;55.69;52016.00;5092763;27;20056;-71
2023/05/13 12:16:06;;;;;;;;;;;;;;;-144.99;55.50;52018.03;5091722;28;19963;-72
2023/05/13 12:18:33;;;;;;;;;;;;;;;-144.99;55.03;51999.69;5090523;28;19970;-72
2023/05/13 12:20:59;;;;;;;;;;;;;;;-144.99;54.79;51975.25;5097076;28;19928;-73
2023/05/13 12:23:37;;;;;;;;;;;;;;;-144.99;54.57;51979.31;5099671;28;20361;-74
2023/05/13 12:26:07;;;;;;;;;;;;;;;-144.99;54.41;52007.84;5093757;28;20390;-72
2023/05/13 12:28:33;;;;;;;;;;;;;;;-144.99;54.25;52036.38;5093963;28;20461;-73